Time;durP1;ratioP1;P1;durP2;ratioP2;P2;SDS_P1;SDS_P2;PMS_P1;PMS_P2;Temp;Humidity;BMP_temperature;BMP_pressure;BME280_temperature;BME280_humidity;BME280_pressure;Samples;Min_cycle;Max_cycle;Signal;HPM_P1;HPM_P2
2023/01/08 00:01:07;;;;;;;3.30;1.40;;;15.40;57.10;;;;;;2560336;54;20973;-82
2023/01/08 00:03:34;;;;;;;2.10;0.90;;;15.40;56.60;;;;;;2559752;54;20956;-83
2023/01/08 00:06:02;;;;;;;2.37;0.90;;;15.30;56.70;;;;;;2560087;54;20977;-83
2023/01/08 00:08:28;;;;;;;2.80;1.10;;;15.30;56.70;;;;;;2320047;55;20941;-83
2023/01/08 00:10:55;;;;;;;3.00;1.00;;;15.30;56.70;;;;;;2559969;54;20926;-83
2023/01/08 00:13:22;;;;;;;1.95;0.90;;;15.30;56.70;;;;;;2560369;54;20938;-83
2023/01/08 00:15:48;;;;;;;2.85;1.20;;;15.30;56.70;;;;;;2560186;54;20945;-83
2023/01/08 00:18:14;;;;;;;2.15;0.90;;;15.30;56.80;;;;;;2560238;54;20914;-84
2023/01/08 00:20:53;;;;;;;2.60;1.30;;;15.30;56.70;;;;;;2320338;55;20989;-81
2023/01/08 00:23:19;;;;;;;2.08;0.90;;;15.30;56.10;;;;;;2559886;54;20985;-81
2023/01/08 00:25:46;;;;;;;2.05;0.80;;;15.20;56.60;;;;;;2560282;54;21327;-82
2023/01/08 00:28:13;;;;;;;2.30;1.05;;;15.20;56.60;;;;;;2560473;54;20974;-81
2023/01/08 00:30:40;;;;;;;2.58;1.08;;;15.20;56.70;;;;;;2320578;55;20962;-82
2023/01/08 00:33:07;;;;;;;2.15;1.10;;;15.20;56.70;;;;;;2560560;54;20926;-85
2023/01/08 00:35:33;;;;;;;1.92;0.82;;;15.20;56.70;;;;;;2559624;54;21013;-81
2023/01/08 00:37:59;;;;;;;2.72;1.00;;;15.20;56.70;;;;;;2560424;54;20941;-82
2023/01/08 00:40:26;;;;;;;2.17;0.98;;;15.20;56.70;;;;;;2559822;54;20978;-81
2023/01/08 00:42:52;;;;;;;2.28;1.00;;;15.20;56.80;;;;;;2320249;55;21064;-82
2023/01/08 00:45:19;;;;;;;2.12;1.02;;;15.20;56.70;;;;;;2559998;54;20922;-81
2023/01/08 00:47:45;;;;;;;2.03;0.95;;;15.20;56.70;;;;;;2560434;54;20933;-81
2023/01/08 00:50:12;;;;;;;2.53;0.98;;;15.10;56.60;;;;;;2320024;55;20990;-82
2023/01/08 00:52:38;;;;;;;2.10;0.90;;;15.10;56.60;;;;;;2320059;55;20965;-82
2023/01/08 00:55:05;;;;;;;2.95;1.00;;;15.10;56.60;;;;;;2560274;54;21033;-84
2023/01/08 00:57:36;;;;;;;2.50;0.90;;;15.10;56.60;;;;;;2560093;54;21028;-80
2023/01/08 01:00:04;;;;;;;2.72;1.10;;;15.10;56.50;;;;;;2560267;54;20989;-81
2023/01/08 01:02:31;;;;;;;3.10;1.10;;;15.10;56.60;;;;;;2319877;55;20958;-81
2023/01/08 01:04:57;;;;;;;2.15;0.88;;;15.10;56.60;;;;;;2560081;54;20953;-82
2023/01/08 01:07:23;;;;;;;2.62;1.05;;;15.20;56.70;;;;;;2559843;54;20938;-81
2023/01/08 01:09:49;;;;;;;2.62;1.05;;;15.20;56.70;;;;;;2320492;55;20968;-82
2023/01/08 01:12:16;;;;;;;3.08;0.90;;;15.20;56.70;;;;;;2319781;55;20937;-82
2023/01/08 01:14:42;;;;;;;1.60;0.73;;;15.20;56.70;;;;;;2559939;54;20973;-81
2023/01/08 01:17:12;;;;;;;2.50;1.00;;;15.20;56.60;;;;;;2559830;54;21459;-82
2023/01/08 01:19:39;;;;;;;2.20;0.90;;;15.20;56.60;;;;;;2559826;54;21005;-82
2023/01/08 01:22:05;;;;;;;2.65;1.10;;;15.30;56.70;;;;;;2320025;55;20936;-81
2023/01/08 01:24:32;;;;;;;2.30;1.00;;;15.30;56.70;;;;;;2319685;55;21036;-81
2023/01/08 01:26:58;;;;;;;2.30;0.90;;;15.30;56.70;;;;;;2319682;55;20933;-82
2023/01/08 01:29:24;;;;;;;2.20;1.00;;;15.30;56.70;;;;;;2560076;54;20988;-81
2023/01/08 01:31:51;;;;;;;2.03;0.93;;;15.30;56.60;;;;;;2555920;54;20938;-81
2023/01/08 01:34:18;;;;;;;2.30;1.00;;;15.30;56.60;;;;;;2559593;54;20934;-81
2023/01/08 01:36:44;;;;;;;2.35;0.90;;;15.30;56.60;;;;;;2319055;55;20952;-81
2023/01/08 01:39:10;;;;;;;2.12;0.80;;;15.40;56.60;;;;;;2319574;55;20978;-81
2023/01/08 01:41:41;;;;;;;3.10;0.90;;;15.40;56.50;;;;;;2559712;54;21386;-81
2023/01/08 01:44:59;;;;;;;2.40;0.80;;;15.40;56.40;;;;;;2560341;54;20949;-82
2023/01/08 01:47:35;;;;;;;2.10;0.98;;;15.40;55.80;;;;;;2319635;55;20906;-81
2023/01/08 01:50:30;;;;;;;2.62;1.20;;;15.40;56.10;;;;;;2559882;54;20930;-81
2023/01/08 01:53:08;;;;;;;2.45;1.00;;;15.40;56.00;;;;;;2559797;54;21980;-82
2023/01/08 01:55:35;;;;;;;3.37;1.12;;;15.50;56.10;;;;;;2560167;54;20996;-82
2023/01/08 01:58:10;;;;;;;2.35;0.93;;;15.50;56.40;;;;;;2560484;54;20957;-81
2023/01/08 02:00:36;;;;;;;3.17;1.12;;;15.50;56.10;;;;;;2560077;54;20926;-81
2023/01/08 02:03:04;;;;;;;2.17;0.95;;;15.50;56.30;;;;;;2559569;54;20954;-82
2023/01/08 02:05:42;;;;;;;2.33;0.82;;;15.50;56.30;;;;;;2319585;55;20985;-82
2023/01/08 02:08:12;;;;;;;2.25;0.90;;;15.50;56.10;;;;;;2560040;54;20951;-82
2023/01/08 02:10:50;;;;;;;2.17;0.82;;;15.50;56.10;;;;;;2559545;54;21075;-82
2023/01/08 02:13:19;;;;;;;2.42;1.10;;;15.50;55.70;;;;;;2533257;54;21478;-81
2023/01/08 02:16:01;;;;;;;2.40;1.00;;;15.50;56.20;;;;;;2560836;54;20934;-84
2023/01/08 02:18:31;;;;;;;;;;;15.60;55.50;;;;;;2563624;54;20982;-81
2023/01/08 02:21:03;;;;;;;2.70;0.93;;;15.60;55.30;;;;;;2319862;55;20059;-81
2023/01/08 02:24:19;;;;;;;3.65;0.80;;;15.70;56.10;;;;;;2319945;55;20926;-82
2023/01/08 02:26:46;;;;;;;2.45;0.88;;;15.60;55.90;;;;;;2320127;55;20937;-81
2023/01/08 02:29:17;;;;;;;3.00;1.85;;;15.60;56.20;;;;;;2560675;54;21001;-81
2023/01/08 02:31:43;;;;;;;2.15;0.90;;;15.60;55.90;;;;;;2559607;54;20914;-82
2023/01/08 02:34:09;;;;;;;2.55;0.95;;;15.60;56.10;;;;;;2320271;55;21288;-81
2023/01/08 02:36:49;;;;;;;2.58;0.98;;;15.60;56.00;;;;;;2319509;55;20954;-82
2023/01/08 02:40:53;;;;;;;1.98;0.80;;;15.60;55.80;;;;;;2559744;54;20977;-81
2023/01/08 02:43:25;;;;;;;;;;;15.60;55.00;;;;;;2561944;54;21001;-82
2023/01/08 02:45:53;;;;;;;2.28;0.85;;;15.60;55.20;;;;;;2304101;55;20124;-81
2023/01/08 02:48:41;;;;;;;2.50;0.80;;;15.70;55.90;;;;;;2320022;55;20946;-81
2023/01/08 02:51:11;;;;;;;3.75;1.00;;;15.70;55.00;;;;;;2560076;54;21021;-82
2023/01/08 02:53:40;;;;;;;1.83;0.90;;;15.60;55.70;;;;;;2558773;54;20938;-81
2023/01/08 02:56:08;;;;;;;2.75;1.15;;;15.60;55.50;;;;;;2319457;55;21013;-82
2023/01/08 02:58:35;;;;;;;2.30;0.80;;;15.60;55.60;;;;;;2319584;55;20953;-82
2023/01/08 03:01:06;;;;;;;2.33;1.05;;;15.60;55.60;;;;;;2300373;55;21324;-81
2023/01/08 03:03:32;;;;;;;1.95;0.85;;;15.60;55.40;;;;;;2559187;54;20997;-81
2023/01/08 03:06:06;;;;;;;3.20;1.02;;;15.60;55.50;;;;;;2559742;54;20937;-81
2023/01/08 03:08:33;;;;;;;2.37;0.85;;;15.70;55.10;;;;;;2559501;54;20918;-82
2023/01/08 03:11:03;;;;;;;2.37;1.00;;;15.70;55.40;;;;;;2559136;54;20933;-81
2023/01/08 03:13:42;;;;;;;2.40;1.00;;;15.70;55.20;;;;;;2319189;55;21005;-81
2023/01/08 03:16:10;;;;;;;3.75;1.30;;;15.70;55.20;;;;;;2303199;55;21116;-81
2023/01/08 03:18:40;;;;;;;3.47;1.20;;;15.70;55.20;;;;;;2317973;55;20925;-82
2023/01/08 03:21:06;;;;;;;1.62;0.73;;;15.70;55.10;;;;;;2559921;54;20985;-81
2023/01/08 03:23:33;;;;;;;2.65;1.20;;;15.70;55.20;;;;;;2319795;55;20965;-81
2023/01/08 03:26:00;;;;;;;2.08;0.85;;;15.70;55.10;;;;;;2559981;54;20981;-81
2023/01/08 03:28:29;;;;;;;2.40;1.00;;;15.60;55.10;;;;;;2559269;54;20977;-81
2023/01/08 03:30:56;;;;;;;2.10;0.90;;;15.70;55.10;;;;;;2558520;54;20925;-80
2023/01/08 03:33:22;;;;;;;2.47;1.17;;;15.70;55.20;;;;;;2557348;54;20985;-81
2023/01/08 03:35:50;;;;;;;2.45;0.90;;;15.60;55.10;;;;;;2319088;55;21041;-81
2023/01/08 03:38:31;;;;;;;2.90;1.00;;;15.60;55.20;;;;;;2559057;54;20990;-81
2023/01/08 03:41:03;;;;;;;2.28;1.00;;;15.60;54.80;;;;;;2318957;55;21510;-82
2023/01/08 03:43:29;;;;;;;3.17;1.13;;;15.60;55.30;;;;;;2559423;54;21990;-81
2023/01/08 03:45:58;;;;;;;2.33;1.02;;;15.60;55.50;;;;;;2559829;54;21517;-81
2023/01/08 03:48:25;;;;;;;2.95;1.02;;;15.60;55.50;;;;;;2558947;54;20929;-81
2023/01/08 03:50:51;;;;;;;2.87;1.00;;;15.60;55.70;;;;;;2319745;55;21532;-82
2023/01/08 03:53:18;;;;;;;2.40;0.80;;;15.50;55.60;;;;;;2319802;55;20914;-82
2023/01/08 03:55:44;;;;;;;2.75;1.10;;;15.50;55.70;;;;;;2319554;55;20949;-80
2023/01/08 03:58:10;;;;;;;2.17;0.85;;;15.50;55.80;;;;;;2560381;54;21379;-82
2023/01/08 04:00:37;;;;;;;2.70;1.10;;;15.40;55.70;;;;;;2560453;54;20940;-83
2023/01/08 04:03:03;;;;;;;2.53;1.20;;;15.40;55.80;;;;;;2318733;55;21013;-80
2023/01/08 04:05:31;;;;;;;3.67;1.27;;;15.40;55.80;;;;;;2558771;54;21541;-81
2023/01/08 04:07:57;;;;;;;2.20;0.90;;;15.30;55.80;;;;;;2559040;54;20922;-81
2023/01/08 04:10:24;;;;;;;2.03;0.90;;;15.30;55.90;;;;;;2559512;54;21320;-81
2023/01/08 04:12:50;;;;;;;2.05;0.82;;;15.20;56.00;;;;;;2319025;55;21386;-81
2023/01/08 04:15:17;;;;;;;2.90;1.30;;;15.20;56.20;;;;;;2319487;55;20977;-82
2023/01/08 04:17:44;;;;;;;3.35;1.20;;;15.20;56.30;;;;;;2559989;54;20918;-82
2023/01/08 04:20:10;;;;;;;2.97;1.10;;;15.10;56.30;;;;;;2319896;55;20949;-81
2023/01/08 04:22:37;;;;;;;2.12;0.95;;;15.10;56.40;;;;;;2320404;55;20913;-82
2023/01/08 04:25:04;;;;;;;4.85;1.02;;;15.00;56.60;;;;;;2319452;55;21064;-82
2023/01/08 04:27:30;;;;;;;3.17;0.80;;;15.00;56.70;;;;;;2559114;54;20949;-82
2023/01/08 04:29:57;;;;;;;2.53;1.20;;;14.90;56.80;;;;;;2559333;54;20925;-81
2023/01/08 04:32:23;;;;;;;3.85;0.90;;;14.90;56.90;;;;;;2319619;55;21486;-82
2023/01/08 04:34:49;;;;;;;2.37;0.90;;;14.90;57.00;;;;;;2319627;55;21013;-82
2023/01/08 04:37:16;;;;;;;2.10;0.90;;;14.90;57.10;;;;;;2559792;54;21347;-81
2023/01/08 04:39:42;;;;;;;2.95;0.90;;;14.80;57.10;;;;;;2319396;55;20913;-81
2023/01/08 04:42:08;;;;;;;3.00;1.00;;;14.70;57.20;;;;;;2318612;55;21006;-82
2023/01/08 04:44:35;;;;;;;2.28;0.93;;;14.70;57.30;;;;;;2559515;54;20894;-82
2023/01/08 04:47:01;;;;;;;2.40;0.95;;;14.70;57.40;;;;;;2558681;54;21005;-81
2023/01/08 04:49:27;;;;;;;2.08;0.80;;;14.60;57.40;;;;;;2559078;54;21276;-82
2023/01/08 04:51:53;;;;;;;2.25;0.90;;;14.60;57.60;;;;;;2559351;54;20930;-84
2023/01/08 04:54:20;;;;;;;3.75;0.93;;;14.50;57.60;;;;;;2319553;55;21462;-82
2023/01/08 04:56:49;;;;;;;3.72;0.93;;;14.50;57.70;;;;;;2319579;55;20937;-82
2023/01/08 04:59:16;;;;;;;2.37;0.75;;;14.40;57.70;;;;;;2558654;54;20967;-84
2023/01/08 05:01:42;;;;;;;2.17;0.70;;;14.40;57.80;;;;;;2559303;54;20921;-82
2023/01/08 05:04:09;;;;;;;1.80;0.70;;;14.40;57.90;;;;;;2559511;54;20946;-82
2023/01/08 05:06:36;;;;;;;1.58;0.80;;;14.30;57.90;;;;;;2559444;54;22041;-82
2023/01/08 05:09:04;;;;;;;1.80;0.60;;;14.30;58.00;;;;;;2559900;54;20945;-82
2023/01/08 05:11:30;;;;;;;1.42;0.60;;;14.20;58.00;;;;;;2318282;55;21959;-82
2023/01/08 05:13:57;;;;;;;2.37;1.02;;;14.20;58.10;;;;;;2531829;54;21068;-82
2023/01/08 05:16:23;;;;;;;1.50;0.68;;;14.20;58.10;;;;;;2319586;55;21972;-82
2023/01/08 05:18:49;;;;;;;2.17;0.85;;;14.20;58.30;;;;;;2319744;55;21817;-82
2023/01/08 05:21:15;;;;;;;2.37;0.80;;;14.20;58.40;;;;;;2540824;54;20996;-81
2023/01/08 05:23:44;;;;;;;1.70;0.62;;;14.10;58.40;;;;;;2550073;54;21034;-82
2023/01/08 05:26:11;;;;;;;2.12;0.80;;;14.10;58.50;;;;;;2308293;55;20989;-82
2023/01/08 05:28:37;;;;;;;2.12;0.90;;;14.10;58.60;;;;;;2311128;55;20969;-82
2023/01/08 05:31:04;;;;;;;2.47;0.80;;;14.10;58.60;;;;;;2318066;55;21834;-82
2023/01/08 05:33:30;;;;;;;1.70;0.70;;;14.10;58.60;;;;;;2559360;54;20969;-82
2023/01/08 05:35:57;;;;;;;3.12;0.90;;;14.10;58.70;;;;;;2318290;55;20926;-82
2023/01/08 05:38:23;;;;;;;2.97;0.73;;;14.10;58.70;;;;;;2558449;54;20973;-83
2023/01/08 05:40:52;;;;;;;2.05;0.80;;;14.10;58.80;;;;;;2318105;55;21073;-82
2023/01/08 05:43:19;;;;;;;3.03;0.93;;;14.10;58.80;;;;;;2557562;54;20921;-84
2023/01/08 05:45:45;;;;;;;3.12;1.00;;;14.10;59.00;;;;;;2316986;55;20973;-82
2023/01/08 05:48:12;;;;;;;2.50;1.00;;;14.10;59.00;;;;;;2555738;54;20933;-81
2023/01/08 05:50:38;;;;;;;1.95;0.80;;;14.10;59.00;;;;;;2297399;55;21044;-82
2023/01/08 05:53:07;;;;;;;2.72;1.00;;;14.10;59.00;;;;;;2315971;55;20956;-81
2023/01/08 05:55:33;;;;;;;2.00;0.85;;;14.10;59.10;;;;;;2555166;54;21014;-81
2023/01/08 05:58:03;;;;;;;4.28;0.90;;;14.10;59.20;;;;;;2315879;55;20937;-83
2023/01/08 06:00:30;;;;;;;1.85;0.80;;;14.10;59.20;;;;;;2313668;55;20933;-82
2023/01/08 06:02:56;;;;;;;2.33;0.88;;;14.10;59.20;;;;;;2552901;54;21598;-82
2023/01/08 06:05:23;;;;;;;2.08;0.90;;;14.10;59.20;;;;;;2553793;54;21474;-81
2023/01/08 06:07:50;;;;;;;2.10;0.80;;;14.10;59.20;;;;;;2526331;54;20981;-82
2023/01/08 06:10:16;;;;;;;1.62;0.68;;;14.10;59.20;;;;;;2314089;55;21057;-82
2023/01/08 06:12:42;;;;;;;3.22;1.00;;;14.10;59.20;;;;;;2553564;54;20933;-82
2023/01/08 06:15:09;;;;;;;3.45;1.00;;;14.10;59.30;;;;;;2554444;54;20981;-81
2023/01/08 06:17:36;;;;;;;2.33;0.75;;;14.10;59.30;;;;;;2555484;54;22006;-82
2023/01/08 06:20:03;;;;;;;2.22;0.80;;;14.10;59.30;;;;;;2555374;54;20951;-82
2023/01/08 06:22:30;;;;;;;2.45;0.85;;;14.10;59.40;;;;;;2294519;55;21752;-82
2023/01/08 06:24:58;;;;;;;2.92;1.10;;;14.10;59.40;;;;;;2315600;55;21438;-81
2023/01/08 06:27:24;;;;;;;2.40;0.80;;;14.10;59.50;;;;;;2555831;54;20918;-82
2023/01/08 06:29:51;;;;;;;2.00;0.80;;;14.10;59.50;;;;;;2317025;55;21453;-82
2023/01/08 06:32:18;;;;;;;2.72;0.90;;;14.10;59.50;;;;;;2558189;54;20993;-81
2023/01/08 06:34:44;;;;;;;3.08;0.77;;;14.20;59.60;;;;;;2558947;54;20934;-82
2023/01/08 06:37:10;;;;;;;1.77;0.70;;;14.20;59.60;;;;;;2318097;55;20942;-82
2023/01/08 06:39:36;;;;;;;2.20;0.85;;;14.00;59.50;;;;;;2558125;54;21308;-82
2023/01/08 06:42:03;;;;;;;1.77;0.68;;;14.10;59.60;;;;;;2318634;55;20946;-83
2023/01/08 06:44:29;;;;;;;1.87;0.60;;;14.10;59.60;;;;;;2318369;55;22044;-82
2023/01/08 06:46:55;;;;;;;1.40;0.70;;;14.10;59.60;;;;;;2300095;55;20941;-82
2023/01/08 06:49:22;;;;;;;1.87;0.80;;;14.10;59.60;;;;;;2557367;54;20930;-84
2023/01/08 06:51:49;;;;;;;1.37;0.60;;;14.10;59.60;;;;;;2557706;54;20906;-83
2023/01/08 06:54:15;;;;;;;1.10;0.65;;;14.10;59.60;;;;;;2557955;54;20937;-82
2023/01/08 06:56:41;;;;;;;1.73;0.70;;;14.10;59.70;;;;;;2558927;54;21441;-83
2023/01/08 06:59:18;;;;;;;1.62;0.65;;;14.10;59.70;;;;;;2558098;54;21078;-81
2023/01/08 07:01:45;;;;;;;1.85;0.70;;;14.10;59.70;;;;;;2559698;54;21154;-82
2023/01/08 07:04:12;;;;;;;1.40;0.60;;;14.10;59.80;;;;;;2558095;54;21605;-83
2023/01/08 07:06:38;;;;;;;1.75;0.70;;;14.10;59.70;;;;;;2559088;54;20918;-82
2023/01/08 07:09:05;;;;;;;1.23;0.60;;;14.10;59.80;;;;;;2319113;55;21013;-82
2023/01/08 07:11:32;;;;;;;2.05;0.50;;;14.10;59.80;;;;;;2557612;54;20984;-82
2023/01/08 07:13:58;;;;;;;1.48;0.60;;;14.10;59.80;;;;;;2317865;55;20929;-82
2023/01/08 07:16:24;;;;;;;1.62;0.60;;;14.10;59.90;;;;;;2317704;55;20957;-82
2023/01/08 07:18:51;;;;;;;1.20;0.50;;;14.10;59.90;;;;;;2558153;54;20930;-82
2023/01/08 07:21:19;;;;;;;1.00;0.50;;;14.10;59.90;;;;;;2317534;55;20937;-82
2023/01/08 07:23:47;;;;;;;1.00;0.45;;;14.10;59.90;;;;;;2318155;55;21277;-83
2023/01/08 07:26:14;;;;;;;1.20;0.50;;;14.10;59.90;;;;;;2556847;54;20993;-82
2023/01/08 07:28:41;;;;;;;2.35;0.50;;;14.00;59.90;;;;;;2557667;54;20970;-82
2023/01/08 07:31:07;;;;;;;1.00;0.47;;;13.90;59.80;;;;;;2317756;55;20973;-82
2023/01/08 07:33:34;;;;;;;1.08;0.50;;;14.00;59.90;;;;;;2317794;55;20950;-82
2023/01/08 07:36:01;;;;;;;0.98;0.40;;;14.00;60.60;;;;;;2317907;55;20934;-82
2023/01/08 07:38:27;;;;;;;1.55;0.50;;;14.00;60.00;;;;;;2557082;54;21759;-83
2023/01/08 07:40:56;;;;;;;1.55;0.60;;;14.00;60.00;;;;;;2559057;54;21002;-82
2023/01/08 07:43:24;;;;;;;1.42;0.52;;;14.00;60.00;;;;;;2318856;55;20997;-83
2023/01/08 07:45:50;;;;;;;1.40;0.60;;;14.00;60.00;;;;;;2559319;54;20961;-82
2023/01/08 07:48:16;;;;;;;2.45;1.20;;;14.00;60.10;;;;;;2319045;55;20898;-83
2023/01/08 07:50:43;;;;;;;1.92;0.88;;;14.00;60.10;;;;;;2559005;54;21274;-82
2023/01/08 07:53:11;;;;;;;1.20;0.50;;;14.00;60.10;;;;;;2558316;54;20993;-82
2023/01/08 07:55:37;;;;;;;1.05;0.50;;;13.90;60.00;;;;;;2319216;55;20977;-81
2023/01/08 07:58:08;;;;;;;2.97;0.82;;;13.90;60.10;;;;;;2559467;54;21869;-82
2023/01/08 08:00:35;;;;;;;1.17;0.50;;;13.90;60.10;;;;;;2559302;54;20929;-85
2023/01/08 08:03:05;;;;;;;0.70;0.40;;;13.90;60.20;;;;;;2318997;55;21089;-82
2023/01/08 08:05:32;;;;;;;1.45;0.52;;;13.90;60.20;;;;;;2558905;54;20949;-81
2023/01/08 08:07:59;;;;;;;1.87;0.50;;;13.90;60.20;;;;;;2559568;54;20930;-83
2023/01/08 08:10:25;;;;;;;0.90;0.40;;;13.90;60.20;;;;;;2300346;55;20936;-82
2023/01/08 08:12:52;;;;;;;0.90;0.40;;;13.90;60.30;;;;;;2559938;54;20959;-82
2023/01/08 08:15:19;;;;;;;1.08;0.50;;;13.90;60.30;;;;;;2558239;54;21909;-82
2023/01/08 08:17:46;;;;;;;1.08;0.40;;;13.90;60.20;;;;;;2559024;54;20985;-82
2023/01/08 08:20:13;;;;;;;1.20;0.50;;;13.90;60.30;;;;;;2558770;54;21032;-83
2023/01/08 08:22:39;;;;;;;0.85;0.40;;;13.90;60.30;;;;;;2318676;55;20933;-82
2023/01/08 08:25:05;;;;;;;1.45;0.55;;;13.90;60.30;;;;;;2319269;55;20945;-82
2023/01/08 08:27:32;;;;;;;0.98;0.43;;;13.90;60.30;;;;;;2558722;54;20906;-82
2023/01/08 08:29:59;;;;;;;0.55;0.30;;;13.90;60.30;;;;;;2558946;54;22214;-82
2023/01/08 08:32:25;;;;;;;1.55;0.60;;;13.90;60.30;;;;;;2558677;54;20969;-82
2023/01/08 08:34:52;;;;;;;0.80;0.40;;;13.90;60.30;;;;;;2559503;54;20985;-82
2023/01/08 08:37:18;;;;;;;1.67;0.62;;;13.90;60.30;;;;;;2558408;54;20910;-82
2023/01/08 08:39:44;;;;;;;1.65;0.60;;;13.90;60.30;;;;;;2558317;54;20934;-83
2023/01/08 08:42:11;;;;;;;1.08;0.50;;;13.90;60.20;;;;;;2558174;54;20961;-82
2023/01/08 08:44:37;;;;;;;1.65;0.60;;;13.90;60.20;;;;;;2318666;55;21032;-82
2023/01/08 08:47:07;;;;;;;1.27;0.60;;;13.90;60.20;;;;;;2555162;54;20985;-82
2023/01/08 08:49:33;;;;;;;1.27;0.50;;;13.90;60.10;;;;;;2316092;55;21012;-81
2023/01/08 08:51:59;;;;;;;1.90;0.60;;;14.00;60.30;;;;;;2555558;54;20930;-84
2023/01/08 08:54:26;;;;;;;2.83;0.73;;;14.00;60.20;;;;;;2316197;55;20942;-82
2023/01/08 08:56:52;;;;;;;1.50;0.60;;;14.00;60.10;;;;;;2555283;54;20945;-85
2023/01/08 08:59:19;;;;;;;1.80;0.80;;;14.00;60.10;;;;;;2555574;54;21461;-85
2023/01/08 09:01:45;;;;;;;1.48;0.57;;;14.00;60.10;;;;;;2529402;54;20985;-83
2023/01/08 09:04:12;;;;;;;1.60;0.70;;;14.00;60.10;;;;;;2555592;54;20953;-82
2023/01/08 09:06:39;;;;;;;1.50;0.60;;;14.00;60.10;;;;;;2315754;55;20921;-82
2023/01/08 09:09:06;;;;;;;1.00;0.40;;;14.00;60.20;;;;;;2556103;54;20922;-82
2023/01/08 09:11:33;;;;;;;1.05;0.47;;;14.00;60.10;;;;;;2315787;55;21424;-82
2023/01/08 09:13:59;;;;;;;1.15;0.50;;;14.10;60.30;;;;;;2556377;54;20969;-82
2023/01/08 09:16:26;;;;;;;1.90;0.70;;;14.10;60.20;;;;;;2317616;55;20918;-82
2023/01/08 09:18:53;;;;;;;1.52;0.60;;;14.10;60.20;;;;;;2559517;54;21420;-82
2023/01/08 09:21:19;;;;;;;1.73;0.57;;;14.10;60.20;;;;;;2317330;55;21061;-81
2023/01/08 09:23:48;;;;;;;3.08;0.80;;;14.10;60.30;;;;;;2558849;54;20986;-82
2023/01/08 09:26:14;;;;;;;1.73;0.93;;;14.10;60.30;;;;;;2558495;54;20922;-85
2023/01/08 09:28:40;;;;;;;3.37;0.68;;;14.10;60.30;;;;;;2559217;54;21353;-81
2023/01/08 09:31:06;;;;;;;1.87;0.80;;;14.10;60.30;;;;;;2318285;55;21894;-82
2023/01/08 09:33:33;;;;;;;1.62;0.60;;;14.10;60.30;;;;;;2560254;54;20949;-85
2023/01/08 09:35:59;;;;;;;1.37;0.60;;;14.10;60.30;;;;;;2560949;54;20922;-82
2023/01/08 09:38:26;;;;;;;3.42;0.90;;;14.10;60.40;;;;;;2319963;55;21013;-81
2023/01/08 09:41:00;;;;;;;1.65;0.70;;;14.10;60.40;;;;;;2560448;54;20946;-84
2023/01/08 09:43:28;;;;;;;1.75;0.70;;;14.10;60.40;;;;;;2560555;54;21053;-82
2023/01/08 09:45:57;;;;;;;1.92;0.70;;;14.10;60.40;;;;;;2559995;54;21395;-81
2023/01/08 09:48:27;;;;;;;2.42;0.70;;;14.10;60.40;;;;;;2320263;55;20962;-84
2023/01/08 09:50:53;;;;;;;1.40;0.60;;;14.10;60.40;;;;;;2320864;55;21363;-82
2023/01/08 09:53:20;;;;;;;2.03;0.55;;;14.10;60.50;;;;;;2560872;54;21194;-82
2023/01/08 09:55:54;;;;;;;1.60;0.60;;;14.10;60.50;;;;;;2320447;55;21795;-83
2023/01/08 09:58:42;;;;;;;1.92;0.68;;;14.10;60.40;;;;;;2320126;55;20994;-83
2023/01/08 10:01:12;;;;;;;1.58;0.60;;;14.10;60.50;;;;;;2560168;54;20930;-82
2023/01/08 10:03:44;;;;;;;1.17;0.50;;;14.10;60.50;;;;;;2319736;55;20953;-82
2023/01/08 10:06:11;;;;;;;1.20;0.50;;;14.10;60.60;;;;;;2561265;54;20937;-82
2023/01/08 10:08:37;;;;;;;2.08;0.60;;;14.20;60.70;;;;;;2321453;55;21874;-83
2023/01/08 10:11:04;;;;;;;1.50;0.60;;;14.20;60.80;;;;;;2320824;55;20993;-81
2023/01/08 10:13:31;;;;;;;0.82;0.47;;;14.20;60.80;;;;;;2561286;54;21017;-82
2023/01/08 10:15:58;;;;;;;1.37;0.50;;;14.10;60.70;;;;;;2561317;54;20974;-85
2023/01/08 10:18:25;;;;;;;1.20;0.40;;;14.20;60.70;;;;;;2560659;54;20934;-83
2023/01/08 10:20:51;;;;;;;1.08;0.50;;;14.20;60.80;;;;;;2561259;54;20988;-84
2023/01/08 10:23:21;;;;;;;1.30;0.50;;;14.20;60.80;;;;;;2320348;55;21029;-83
2023/01/08 10:26:00;;;;;;;1.50;0.60;;;14.20;60.90;;;;;;2320726;55;20997;-82
2023/01/08 10:28:34;;;;;;;2.47;0.60;;;14.20;60.80;;;;;;2560633;54;21158;-84
2023/01/08 10:31:05;;;;;;;1.35;0.60;;;14.20;60.80;;;;;;2561367;54;21218;-85
2023/01/08 10:33:42;;;;;;;1.77;0.70;;;14.20;60.70;;;;;;2558838;54;20997;-82
2023/01/08 10:36:10;;;;;;;1.70;0.60;;;14.20;60.70;;;;;;2557952;54;20969;-86
2023/01/08 10:38:53;;;;;;;1.40;0.52;;;14.20;60.80;;;;;;2318221;55;20973;-82
2023/01/08 10:41:20;;;;;;;1.52;0.60;;;14.20;60.80;;;;;;2557689;54;20965;-81
2023/01/08 10:43:55;;;;;;;1.23;0.60;;;14.20;60.80;;;;;;2558584;54;20930;-85
2023/01/08 10:46:30;;;;;;;1.75;0.70;;;14.20;60.70;;;;;;2557964;54;20969;-85
2023/01/08 10:48:59;;;;;;;1.67;0.55;;;14.20;60.80;;;;;;2318663;55;21252;-84
2023/01/08 10:51:27;;;;;;;1.40;0.60;;;14.20;60.90;;;;;;2558047;54;21670;-84
2023/01/08 10:53:54;;;;;;;2.00;0.77;;;14.20;60.90;;;;;;2558607;54;21005;-85
2023/01/08 10:56:25;;;;;;;1.58;0.60;;;14.20;60.90;;;;;;2558457;54;20936;-85
2023/01/08 10:58:51;;;;;;;1.05;0.40;;;14.20;60.90;;;;;;2559168;54;20903;-85
2023/01/08 11:01:51;;;;;;;1.62;0.70;;;14.20;61.00;;;;;;2316893;55;20934;-84
2023/01/08 11:04:32;;;;;;;1.30;0.50;;;14.20;60.70;;;;;;2558304;54;20945;-84
2023/01/08 11:07:03;;;;;;;0.95;0.40;;;14.20;60.90;;;;;;2558596;54;21060;-84
2023/01/08 11:09:31;;;;;;;1.55;0.52;;;14.20;61.00;;;;;;2558205;54;21910;-84
2023/01/08 11:11:57;;;;;;;0.95;0.40;;;14.20;61.00;;;;;;2318676;55;20998;-84
2023/01/08 11:14:34;;;;;;;1.27;0.50;;;14.20;61.00;;;;;;2559135;54;20942;-85
2023/01/08 11:17:01;;;;;;;1.25;0.50;;;14.30;61.10;;;;;;2558333;54;20934;-84
2023/01/08 11:19:29;;;;;;;0.98;0.45;;;14.30;61.30;;;;;;2318429;55;20938;-85
2023/01/08 11:21:57;;;;;;;0.57;0.30;;;14.30;61.30;;;;;;2318978;55;20926;-84
2023/01/08 11:24:34;;;;;;;1.20;0.43;;;14.30;61.30;;;;;;2318890;55;20914;-84
2023/01/08 11:27:44;;;;;;;1.00;0.40;;;14.30;61.90;;;;;;2559209;54;21963;-84
2023/01/08 11:30:18;;;;;;;0.82;0.40;;;14.40;61.40;;;;;;2558730;54;20941;-84
2023/01/08 11:33:05;;;;;;;2.03;0.40;;;14.40;61.20;;;;;;2559720;54;20941;-84
2023/01/08 11:35:36;;;;;;;0.70;0.30;;;14.40;61.20;;;;;;2560493;54;20918;-85
2023/01/08 11:38:04;;;;;;;0.55;0.30;;;14.40;61.20;;;;;;2320789;55;20970;-84
2023/01/08 11:41:22;;;;;;;0.70;0.40;;;14.50;61.30;;;;;;2320486;55;21755;-84
2023/01/08 11:44:47;;;;;;;1.25;0.47;;;14.50;60.70;;;;;;2560474;54;20946;-84
2023/01/08 11:47:18;;;;;;;1.77;0.40;;;14.50;60.90;;;;;;2560190;54;20993;-84
2023/01/08 11:50:20;;;;;;;1.00;0.40;;;14.50;61.00;;;;;;2292446;55;1734368;-84
2023/01/08 11:56:30;;;;;;;1.30;0.40;;;14.60;60.80;;;;;;2320480;55;21033;-84
2023/01/08 11:59:59;;;;;;;0.47;0.28;;;14.60;60.80;;;;;;2560146;54;20967;-83
2023/01/08 12:03:33;;;;;;;0.52;0.30;;;14.60;60.60;;;;;;2559630;54;21386;-85
2023/01/08 12:06:10;;;;;;;0.98;0.40;;;14.60;60.20;;;;;;2560291;54;20926;-84
2023/01/08 12:08:58;;;;;;;0.68;0.30;;;14.60;60.60;;;;;;2319795;55;20962;-82
2023/01/08 12:11:26;;;;;;;0.75;0.30;;;14.60;60.60;;;;;;2319506;55;20917;-84
2023/01/08 12:17:35;;;;;;;0.90;0.40;;;14.60;60.60;;;;;;2560695;54;20963;-82
2023/01/08 12:20:37;;;;;;;0.62;0.32;;;14.60;60.30;;;;;;2319514;54;20937;-83
2023/01/08 12:24:24;;;;;;;0.50;0.20;;;14.60;60.10;;;;;;2319221;55;20953;-83
2023/01/08 12:27:12;;;;;;;0.45;0.30;;;14.60;60.40;;;;;;2559906;54;20906;-83
2023/01/08 12:30:00;;;;;;;0.70;0.32;;;14.60;60.60;;;;;;2320454;55;20930;-83
2023/01/08 12:32:37;;;;;;;0.40;0.20;;;14.60;60.70;;;;;;2320422;55;20930;-83
2023/01/08 12:36:29;;;;;;;0.70;0.30;;;14.70;60.90;;;;;;2562592;54;21993;-83
2023/01/08 12:39:20;;;;;;;0.77;0.40;;;14.70;60.50;;;;;;2324031;55;20921;-83
2023/01/08 12:41:47;;;;;;;0.73;0.40;;;14.80;60.70;;;;;;2560786;54;21001;-82
2023/01/08 12:44:16;;;;;;;1.00;0.30;;;14.80;60.90;;;;;;2560281;54;20953;-82
2023/01/08 12:46:46;;;;;;;0.28;0.20;;;14.80;60.80;;;;;;2561389;54;20929;-84
2023/01/08 12:49:15;;;;;;;0.65;0.30;;;14.80;60.70;;;;;;2561363;54;20930;-82
2023/01/08 12:51:57;;;;;;;0.35;0.25;;;14.90;60.70;;;;;;2321109;55;21011;-82
2023/01/08 12:56:02;;;;;;;1.02;0.37;;;14.90;60.30;;;;;;2321193;55;22212;-82
2023/01/08 12:58:41;;;;;;;;;;;14.90;60.10;;;;;;2564617;54;20909;-81
2023/01/08 13:01:31;;;;;;;1.00;0.40;;;14.90;60.10;;;;;;2561764;54;20288;-81
2023/01/08 13:03:58;;;;;;;0.50;0.20;;;15.00;60.10;;;;;;2561573;54;20974;-82
2023/01/08 13:06:24;;;;;;;0.82;0.40;;;14.90;60.30;;;;;;2560192;54;22276;-81
2023/01/08 13:08:54;;;;;;;1.30;0.40;;;15.00;60.50;;;;;;2561509;54;20941;-81
2023/01/08 13:11:28;;;;;;;0.80;0.30;;;14.90;60.30;;;;;;2320222;55;20937;-81
2023/01/08 13:14:02;;;;;;;0.32;0.20;;;15.00;60.30;;;;;;2560990;54;21005;-81
2023/01/08 13:16:30;;;;;;;0.35;0.15;;;14.80;60.00;;;;;;2559922;54;20933;-81